• Join FlightAware (Why Join?)
  • Login
  • US Flag GB Flag 
10:22 EDT


 

Airport Tracker/Info


-or-


 

Live Flight TrackerFlight Track Log ✈ DAL1168 ✈ 19-Mar-2012 ✈ KLAX - KMIA

Flight Track Log - Related Links

Times and Time Zones

All times are in EDT time to prevent confusion due to time zone crossing. See the DAL1168 flight status page for this flight to view local times or setup timezone preferences in your user account.

Time Position Orientation Groundspeed Altitude Reporting Facility
EDT Latitude Longitude Course Direction KTS MPH feet Rate Location/Type
01:38 33.8931 -118.5111 223° Southwest 200 230 3,300  Level Los Angeles Center
01:39 33.8439 -118.5672 166° South 252 290 5,800 2,400 Climbing Los Angeles Center
01:40 33.7611 -118.5422 154° Southeast 253 291 8,200 2,220 Climbing Los Angeles Center
01:41 33.6806 -118.4950 107° East 288 331 10,300 1,980 Climbing Los Angeles Center
01:42 33.6514 -118.3794 97° East 276 318 12,200 2,160 Climbing Los Angeles Center
01:43 33.6392 -118.2544 89° East 320 368 14,600 2,280 Climbing Los Angeles Center
01:44 33.6411 -118.1272 89° East 348 400 16,800 1,620 Climbing Los Angeles Center
01:45 33.6433 -117.9925 90° East 375 432 17,900 1,140 Climbing Los Angeles Center
01:46 33.6433 -117.8453 90° East 412 474 19,100 1,380 Climbing Los Angeles Center
01:47 33.6433 -117.6906 90° East 437 503 20,700 1,980 Climbing Los Angeles Center
01:48 33.6433 -117.5361 90° East 458 527 23,100 1,800 Climbing Los Angeles Center
01:49 33.6428 -117.3789 90° East 464 534 24,300 960 Climbing Los Angeles Center
01:50 33.6425 -117.2167 90° East 476 548 25,100 840 Climbing Los Angeles Center
01:51 33.6417 -117.0494 91° East 488 562 26,000 960 Climbing Los Angeles Center
01:52 33.6386 -116.8772 90° East 500 575 27,100 1,200 Climbing Los Angeles Center
01:53 33.6375 -116.7075 91° East 505 581 28,500 1,260 Climbing Los Angeles Center
01:54 33.6342 -116.5303 92° East 515 593 29,700 1,140 Climbing Los Angeles Center
01:55 33.6303 -116.3606 90° East 515 593 30,800 1,020 Climbing Los Angeles Center
01:56 33.6306 -116.1861 92° East 515 593 31,800 1,080 Climbing Los Angeles Center
01:57 33.6264 -116.0114 92° East 515 593 33,000 1,200 Climbing Los Angeles Center
01:58 33.6219 -115.8419 91° East 515 593 34,200 900 Climbing Los Angeles Center
01:59 33.6194 -115.6747 99° East 510 587 34,900 360 Climbing Los Angeles Center
02:00 33.5978 -115.5053 101° East 510 587 35,000  Climbing Los Angeles Center
02:01 33.5697 -115.3358 101° East 515 593 35,000  Level Los Angeles Center
02:02 33.5433 -115.1692 100° East 515 593 35,000 -60 Level Los Angeles Center
02:03 33.5169 -114.9975 102° East 520 598 34,900  Descending Los Angeles Center
02:04 33.4881 -114.8336 101° East 514 592 35,000  Climbing Los Angeles Center
02:06 33.4414 -114.5344 101° East 506 582 35,000  Level Albuquerque Center
02:07 33.4139 -114.3656 100° East 511 588 35,000 -60 Level Albuquerque Center
02:08 33.3881 -114.1969 101° East 511 588 34,900  Descending Albuquerque Center
02:09 33.3600 -114.0306 101° East 511 588 35,000  Climbing Albuquerque Center
02:10 33.3317 -113.8617 101° East 511 588 35,000  Level Albuquerque Center
02:11 33.3033 -113.6931 101° East 511 588 35,000  Level Albuquerque Center
02:12 33.2747 -113.5222 102° East 511 588 35,000 -60 Level Albuquerque Center
02:13 33.2456 -113.3561 101° East 511 588 34,900  Descending Albuquerque Center
02:14 33.2164 -113.1853 102° East 516 594 35,000  Climbing Albuquerque Center
02:15 33.1867 -113.0222 101° East 508 585 34,900 -60 Descending Albuquerque Center
02:16 33.1592 -112.8492 102° East 513 590 34,900  Level Albuquerque Center
02:17 33.1292 -112.6836 102° East 513 590 35,000  Climbing Albuquerque Center
02:18 33.1042 -112.5383 101° East 513 590 34,900  Descending Albuquerque Center
02:19 33.0761 -112.3656 102° East 513 590 35,000  Climbing Albuquerque Center
02:20 33.0419 -112.1803 102° East 518 596 35,000  Level Albuquerque Center
02:21 33.0111 -112.0128 102° East 513 590 35,000  Level Albuquerque Center
02:22 32.9800 -111.8453 102° East 514 592 35,000  Level Albuquerque Center
02:23 32.9486 -111.6753 102° East 514 592 35,000  Level Albuquerque Center
02:24 32.9172 -111.5056 103° East 514 592 35,000  Level Albuquerque Center
02:25 32.8853 -111.3361 102° East 514 592 35,000  Level Albuquerque Center
02:26 32.8533 -111.1617 104° East 519 597 35,000  Level Albuquerque Center
02:27 32.8244 -111.0194 102° East 530 610 35,000  Level Albuquerque Center
02:28 32.7906 -110.8278 104° East 530 610 35,000  Level Albuquerque Center
02:29 32.7519 -110.6436 103° East 530 610 35,000  Level Albuquerque Center
02:30 32.7169 -110.4697 104° East 530 610 35,000  Level Albuquerque Center
02:31 32.6817 -110.2983 103° East 530 610 35,000  Level Albuquerque Center
02:32 32.6483 -110.1244 104° East 530 610 35,000  Level Albuquerque Center
02:33 32.6144 -109.9608 103° East 524 603 35,000  Level Albuquerque Center
02:34 32.5842 -109.8097 104° East 524 603 35,000  Level Albuquerque Center
02:35 32.5481 -109.6386 103° East 529 609 35,000  Level Albuquerque Center
02:36 32.5156 -109.4706 104° East 529 609 35,000  Level Albuquerque Center
02:37 32.4789 -109.3022 103° East 529 609 35,000  Level Albuquerque Center
02:38 32.4458 -109.1319 104° East 529 609 35,000  Level Albuquerque Center
02:39 32.4108 -108.9639 105° East 529 609 35,000  Level Albuquerque Center
02:40 32.3733 -108.7936 103° East 534 615 35,000  Level Albuquerque Center
02:41 32.3358 -108.6089 106° East 529 609 35,000 -60 Level Albuquerque Center
02:42 32.2956 -108.4414 104° East 529 609 34,900 -60 Descending Albuquerque Center
02:43 32.2594 -108.2739 104° East 529 609 34,900  Level Albuquerque Center
02:44 32.2253 -108.1092 104° East 523 602 35,000  Climbing Albuquerque Center
02:45 32.1886 -107.9397 104° East 529 609 35,000 -60 Level Albuquerque Center
02:46 32.1517 -107.7703 104° East 529 609 34,900  Descending Albuquerque Center
02:47 32.1167 -107.6061 104° East 529 609 35,000  Climbing Albuquerque Center
02:48 32.0817 -107.4444 105° East 524 603 34,900  Descending Albuquerque Center
02:49 32.0439 -107.2828 105° East 519 597 35,000  Climbing Albuquerque Center
02:50 32.0064 -107.1164 104° East 514 592 35,000  Level Albuquerque Center
02:51 31.9725 -106.9550 105° East 514 592 35,000  Level Albuquerque Center
02:52 31.9386 -106.8036 106° East 521 600 35,000  Level Albuquerque Center
02:53 31.9000 -106.6425 105° East 516 594 35,000  Level Albuquerque Center
02:54 31.8636 -106.4842 106° East 506 582 35,000  Level Albuquerque Center
02:55 31.8247 -106.3258 121° Southeast 506 582 35,000  Level Albuquerque Center
02:56 31.7525 -106.1825 127° Southeast 501 577 35,000 -60 Level Albuquerque Center
02:57 31.6678 -106.0497 127° Southeast 501 577 34,900 -60 Descending Albuquerque Center
02:58 31.5831 -105.9194 126° Southeast 507 583 34,900  Level Albuquerque Center
02:59 31.5022 -105.7894 127° Southeast 501 577 35,000  Climbing Albuquerque Center
03:00 31.4169 -105.6572 127° Southeast 501 577 35,000 -60 Level Albuquerque Center
03:01 31.3358 -105.5300 127° Southeast 501 577 34,900 -60 Descending Albuquerque Center
03:02 31.2547 -105.4033 128° Southeast 495 570 34,900  Level Albuquerque Center
03:03 31.1647 -105.2669 128° Southeast 495 570 34,900  Level Albuquerque Center
03:04 31.0814 -105.1406 125° Southeast 495 570 35,000  Climbing Albuquerque Center
03:05 31.0058 -105.0144 128° Southeast 490 564 34,900  Descending Albuquerque Center
03:06 30.9200 -104.8886 128° Southeast 497 572 35,000  Climbing Albuquerque Center
03:07 30.8339 -104.7606 128° Southeast 502 578 34,900  Descending Albuquerque Center
03:08 30.7478 -104.6328 127° Southeast 502 578 35,000  Climbing Albuquerque Center
03:09 30.6636 -104.5050 127° Southeast 496 571 35,000  Level Albuquerque Center
03:10 30.5814 -104.3800 128° Southeast 496 571 35,000 -60 Level Albuquerque Center
03:11 30.4969 -104.2531 128° Southeast 496 571 34,900 -60 Descending Albuquerque Center
03:12 30.4144 -104.1308 128° Southeast 496 571 34,900  Level Albuquerque Center
03:13 30.3319 -104.0064 140° Southeast 496 571 34,900  Level Albuquerque Center
03:14 30.2292 -103.9072 145° Southeast 485 558 35,000  Climbing Albuquerque Center
03:15 30.1206 -103.8203 146° Southeast 478 550 34,900 -60 Descending Albuquerque Center
03:16 30.0117 -103.7361 146° Southeast 478 550 34,900  Level Albuquerque Center
03:17 29.9031 -103.6519 147° Southeast 478 550 35,000  Climbing Albuquerque Center
03:18 29.7900 -103.5681 145° Southeast 478 550 35,000  Level Albuquerque Center
03:19 29.6831 -103.4819 147° Southeast 473 544 35,000  Level Albuquerque Center
03:20 29.5700 -103.3961 148° Southeast 478 550 35,000  Level Albuquerque Center
03:21 29.4569 -103.3153 146° Southeast 478 550 35,000  Level Albuquerque Center
03:22 29.3458 -103.2300 145° Southeast 478 550 35,000  Level Albuquerque Center
03:23 29.2325 -103.1403 148° Southeast 490 564 35,000  Level Albuquerque Center
03:24 29.1236 -103.0622 127° Southeast 484 557 35,000 -60 Level Albuquerque Center
03:46 27.4006 -100.5536 89° East 497 572 34,900  Descending Houston Center
03:47 27.4031 -100.3858 89° East 535 616 35,000  Climbing Houston Center
03:48 27.4064 -100.2294 90° East 551 634 34,900  Descending Houston Center
03:49 27.4075 -100.0425 89° East 551 634 35,000  Climbing Houston Center
03:50 27.4106 -99.8911 89° East 551 634 35,000  Level Houston Center
03:51 27.4139 -99.7253 90° East 546 628 35,000  Level Houston Center
03:52 27.4150 -99.5619 87° East 540 621 35,000  Level Houston Center
03:53 27.4225 -99.3964 78° East 534 615 35,000 -60 Level Houston Center
03:54 27.4519 -99.2394 75° East 523 602 34,900  Descending Houston Center
03:55 27.4875 -99.0875 70° East 510 587 35,000  Climbing Houston Center
03:56 27.5322 -98.9503 87° East 475 547 35,000  Level Houston Center
03:57 27.5425 -98.7544 86° East 513 590 35,000  Level Houston Center
03:58 27.5528 -98.5958 85° East 513 590 35,000  Level Houston Center
03:59 27.5647 -98.4375 86° East 513 590 35,000 -60 Level Houston Center
04:00 27.5744 -98.2811 85° East 508 585 34,900 -60 Descending Houston Center
04:01 27.5861 -98.1225 85° East 508 585 34,900  Level Houston Center
04:02 27.5961 -97.9967 87° East 502 578 35,000  Climbing Houston Center
04:03 27.6044 -97.8119 85° East 502 578 34,900  Descending Houston Center
04:04 27.6147 -97.6744 86° East 496 571 35,000  Climbing Houston Center
04:05 27.6244 -97.4992 86° East 500 575 35,000 240 Level Houston Center
04:06 27.6331 -97.3428 85° East 500 575 35,500 540 Climbing Houston Center
04:07 27.6422 -97.2189 84° East 493 567 36,100 720 Climbing Houston Center
04:08 27.6569 -97.0581 87° East 493 567 37,000 360 Climbing Houston Center
04:09 27.6653 -96.8967 86° East 487 560 36,900 -60 Descending Houston Center
04:10 27.6756 -96.7400 87° East 495 570 36,900  Level Houston Center
04:11 27.6831 -96.5878 86° East 495 570 36,900  Level Houston Center
04:12 27.6928 -96.4311 86° East 490 564 36,900  Level Houston Center
04:13 27.7022 -96.2744 87° East 495 570 36,900  Level Houston Center
04:14 27.7094 -96.1222 86° East 495 570 37,000  Climbing Houston Center
04:15 27.7186 -95.9656 86° East 489 563 37,000 -60 Level Houston Center
04:16 27.7275 -95.8061 86° East 500 575 36,900 -60 Descending Houston Center
04:17 27.7364 -95.6517 87° East 495 570 36,900  Level Houston Center
04:18 27.7458 -95.4689 87° East 502 578 37,000  Climbing Houston Center
04:19 27.7522 -95.3025 86° East 515 593 37,000  Level Houston Center
04:20 27.7603 -95.1525 87° East 509 586 37,000  Level Houston Center
04:21 27.7686 -94.9931 88° East 504 580 37,000  Level Houston Center
04:22 27.7742 -94.8361 87° East 504 580 37,000  Level Houston Center
04:23 27.7819 -94.6814 87° East 497 572 37,000  Level Houston Center
04:24 27.7894 -94.5242 87° East 497 572 37,000  Level Houston Center
04:25 27.7967 -94.3717 88° East 497 572 37,000  Level Houston Center
04:26 27.8019 -94.2144 86° East 497 572 37,000  Level Houston Center
04:27 27.8108 -94.0597 87° East 497 572 37,000  Level Houston Center
04:28 27.8178 -93.9025 88° East 497 572 37,000  Level Houston Center
04:29 27.8222 -93.7522 87° East 491 565 37,000  Level Houston Center
04:30 27.8286 -93.6019 88° East 491 565 37,000  Level Houston Center
04:31 27.8328 -93.4469 88° East 486 559 37,000  Level Houston Center
04:32 27.8367 -93.2942 86° East 481 554 37,000  Level Houston Center
04:33 27.8447 -93.1439 89° East 481 554 37,000  Level Houston Center
04:34 27.8483 -92.9819 88° East 488 562 37,000  Level Houston Center
04:35 27.8542 -92.8244 89° East 493 567 37,000 -60 Level Houston Center
04:36 27.8572 -92.6764 87° East 489 563 36,900 -60 Descending Houston Center
04:37 27.8647 -92.5261 89° East 501 577 36,900  Level Houston Center
04:38 27.8675 -92.3708 88° East 496 571 36,900  Level Houston Center
04:39 27.8725 -92.2158 88° East 491 565 37,000  Climbing Houston Center
04:40 27.8772 -92.0583 88° East 491 565 37,000 -60 Level Houston Center
04:41 27.8817 -91.9008 88° East 500 575 36,900  Descending Houston Center
04:42 27.8861 -91.7433 89° East 494 568 37,000  Climbing Houston Center
04:43 27.8881 -91.5742 91° East 494 568 37,000  Level Houston Center
04:44 27.8858 -91.4119 87° East 499 574 37,000  Level Houston Center
04:45 27.8939 -91.2614 89° East 494 568 37,000 -60 Level Houston Center
04:46 27.8956 -91.1086 89° East 489 563 36,900  Descending Houston Center
04:47 27.8989 -90.9508 89° East 489 563 37,000  Climbing Houston Center
04:48 27.9000 -90.8006 89° East 480 552 36,900  Descending Houston Center
04:49 27.9011 -90.6478 88° East 480 552 37,000  Climbing Houston Center
04:50 27.9064 -90.4994 90° East 475 547 37,000  Level Houston Center
04:51 27.9069 -90.3489 89° East 470 541 37,000 -60 Level Houston Center
04:52 27.9097 -90.2008 89° East 479 551 36,900 -60 Descending Houston Center
04:53 27.9122 -90.0550 89° East 471 542 36,900  Level Houston Center
04:54 27.9144 -89.9022 90° East 478 550 37,000  Climbing Houston Center
04:55 27.9144 -89.7469 89° East 478 550 37,000 -60 Level Houston Center
04:56 27.9164 -89.5917 90° East 485 558 36,900  Descending Houston Center
04:57 27.9167 -89.4600 88° East 473 544 37,000  Climbing Houston Center
04:58 27.9203 -89.3069 90° East 478 550 37,000  Level Houston Center
04:59 27.9197 -89.1636 89° East 473 544 37,000 -60 Level Houston Center
05:00 27.9211 -89.0108 91° East 473 544 36,900  Descending Houston Center
05:01 27.9181 -88.8603 89° East 478 550 37,000  Climbing Houston Center
05:02 27.9211 -88.7053 90° East 478 550 36,900  Descending Houston Center
05:04 27.9192 -88.3592 90° East 505 581 37,000  Climbing Jacksonville Center
05:05 27.9189 -88.2161 90° East 479 551 37,000  Level Jacksonville Center
05:06 27.9183 -88.0750 89° East 471 542 37,000  Level Jacksonville Center
05:07 27.9200 -87.9297 89° East 468 539 37,000  Level Jacksonville Center
05:08 27.9214 -87.7864 94° East 463 533 37,000 -60 Level Jacksonville Center
05:09 27.9122 -87.6428 107° East 468 539 36,900  Descending Jacksonville Center
05:10 27.8736 -87.4981 105° East 462 532 37,000  Climbing Jacksonville Center
05:11 27.8408 -87.3628 108° East 459 528 37,000 -60 Level Jacksonville Center
05:12 27.7981 -87.2108 105° East 466 536 36,900  Descending Jacksonville Center
05:13 27.7650 -87.0758 106° East 466 536 37,000  Climbing Jacksonville Center
05:14 27.7278 -86.9336 107° East 473 544 37,000  Level Jacksonville Center
05:15 27.6867 -86.7797 107° East 473 544 37,000  Level Jacksonville Center
05:16 27.6508 -86.6472 107° East 469 540 37,000  Level Jacksonville Center
05:17 27.6114 -86.4983 106° East 474 545 37,000 -60 Level Jacksonville Center
05:18 27.5756 -86.3614 107° East 474 545 36,900 -60 Descending Jacksonville Center
05:19 27.5356 -86.2150 107° East 474 545 36,900  Level Jacksonville Center
05:20 27.4953 -86.0711 107° East 483 556 37,000  Climbing Jacksonville Center
05:23 27.4064 -85.7506 106° East 471 542 36,900  Descending Miami Center
05:24 27.3694 -85.6053 108° East 478 550 37,000  Climbing Miami Center
05:25 27.3261 -85.4597 106° East 478 550 37,000 -60 Level Miami Center
05:26 27.2886 -85.3169 108° East 478 550 36,900 -60 Descending Miami Center
05:27 27.2489 -85.1764 108° East 472 543 36,900  Level Miami Center
05:28 27.2069 -85.0336 107° East 472 543 37,000  Climbing Miami Center
05:29 27.1669 -84.8911 107° East 472 543 37,000 -60 Level Miami Center
05:30 27.1269 -84.7483 107° East 472 543 36,900  Descending Miami Center
05:31 27.0886 -84.6106 105° East 472 543 37,000  Climbing Miami Center
05:32 27.0542 -84.4711 109° East 472 543 37,000 -60 Level Miami Center
05:33 27.0114 -84.3308 107° East 472 543 36,900  Descending Miami Center
05:34 26.9728 -84.1911 108° East 472 543 37,000  Climbing Miami Center
05:35 26.9300 -84.0464 107° East 477 549 37,000 -60 Level Miami Center
05:36 26.8931 -83.9069 109° East 472 543 36,900 -60 Descending Miami Center
05:37 26.8497 -83.7647 108° East 472 543 36,900  Level Miami Center
05:38 26.8086 -83.6206 108° East 472 543 37,000  Climbing Miami Center
05:39 26.7672 -83.4811 107° East 477 549 36,900 -60 Descending Miami Center
05:40 26.7275 -83.3394 109° East 477 549 36,900  Level Miami Center
05:41 26.6839 -83.1953 108° East 477 549 37,000  Climbing Miami Center
05:42 26.6439 -83.0561 110° East 477 549 36,900  Descending Miami Center
05:43 26.5978 -82.9122 107° East 477 549 37,000  Climbing Miami Center
05:44 26.5578 -82.7686 110° East 483 556 36,900  Descending Miami Center
05:45 26.5133 -82.6294 109° East 478 550 37,000 -300 Climbing Miami Center
05:46 26.4708 -82.4883 108° East 478 550 36,300 -840 Descending Miami Center
05:47 26.4303 -82.3472 109° East 473 544 35,400 -1,860 Descending Miami Center
05:48 26.3819 -82.1875 108° East 478 550 32,600 -3,060 Descending Miami Center
05:49 26.3392 -82.0442 108° East 483 556 29,300 -3,060 Descending Miami Center
05:50 26.2983 -81.9011 109° East 483 556 26,600 -2,700 Descending Miami Center
05:51 26.2569 -81.7650 108° East 478 550 23,900 -2,640 Descending Miami Center
05:52 26.2194 -81.6339 110° East 464 534 21,400 -2,460 Descending Miami Center
05:53 26.1797 -81.5097 110° East 442 509 18,900 -2,400 Descending Miami Center
05:54 26.1417 -81.3903 109° East 422 486 16,600 -2,460 Descending Miami Center
05:55 26.1056 -81.2756 112° Southeast 408 470 14,100 -2,340 Descending Miami Center
05:55 26.0900 -81.2333 108° East 396 456 13,100 -2,100 Descending Miami Center
05:57 26.0369 -81.0558 120° Southeast 379 436 10,000 -1,320 Descending Miami Center
05:58 25.9914 -80.9664 130° Southeast 355 409 9,900 -600 Descending Miami Center
05:59 25.9369 -80.8953 123° Southeast 290 334 8,900 -1,200 Descending Miami Center
06:00 25.8950 -80.8244 118° Southeast 297 342 7,500 -1,260 Descending Miami Center
06:01 25.8594 -80.7494 117° Southeast 277 319 6,500 -1,200 Descending Miami Center
06:02 25.8278 -80.6792 115° Southeast 265 305 5,200 -960 Descending Miami Center
06:03 25.8003 -80.6136 116° Southeast 253 291 4,600 -900 Descending Miami Center
06:04 25.7747 -80.5553 88° East 233 268 3,400 -780 Descending Miami Center
06:05 25.7761 -80.5000 89° East 163 188 3,000 -540 Descending Miami Center
06:06 25.7772 -80.4514 85° East 157 181 2,300 -720 Descending Miami Center
06:07 25.7806 -80.4056 92° East 150 173 1,600 -780 Descending Miami Center
06:08 25.7792 -80.3661 83° East 142 163 900 -780 Descending Miami Center
06:09 25.7844 -80.3203 83° East 146 168 200 -720 Descending Miami Center